Sandy Springs, South Carolina
Current Conditions -  °F | °C
As of 1:56 PM on Friday 21 Nov 2014 (Local Time) from KAND Reporting Station
Clear Clear  
Wind Chill: 63°   Ceiling: Unl
Heat Index: 63°   Visibility: 10mi
Dew Point: 24°   Wind: 6mph
Humidity: 23%   Direction: NA
Pressure: 30.35"   Gusts: NA
Location:  34.6°N, 82.75°W
Report Text: KAND 211856Z AUTO VRB05KT 10SM CLR 17/M04 A3035 RMK AO2 SLP275 T01721044
Loading
Personal Weather Stations






























Interactive Weather Map New forecast layout! Learn more

10-Day Weather Forecast

Advertisements
Track Severe Weather on mobile